createdAt,value
2023-02-07T00:01:46.115Z,101134.94
2023-02-07T00:04:13.691Z,101142.28
2023-02-07T00:06:41.193Z,101142.06
2023-02-07T00:09:10.937Z,101139.94
2023-02-07T00:11:40.942Z,101148.69
2023-02-07T00:14:12.152Z,101137.56
2023-02-07T00:16:41.201Z,101141.31
2023-02-07T00:19:09.207Z,101139.69
2023-02-07T00:21:36.880Z,101140.06
2023-02-07T00:24:04.624Z,101141.72
2023-02-07T00:26:32.166Z,101142.72
2023-02-07T00:28:59.631Z,101143.69
2023-02-07T00:31:31.755Z,101148.84
2023-02-07T00:34:02.351Z,101148.66
2023-02-07T00:36:33.502Z,101152.97
2023-02-07T00:39:06.035Z,101153.44
2023-02-07T00:41:34.185Z,101153.63
2023-02-07T00:44:01.701Z,101150.84
2023-02-07T00:46:29.659Z,101154.75
2023-02-07T00:48:57.380Z,101156.97
2023-02-07T00:51:28.008Z,101156.38
2023-02-07T00:53:56.563Z,101157.03
2023-02-07T00:56:28.364Z,101148.69
2023-02-07T00:58:59.742Z,101140.34
2023-02-07T01:01:28.017Z,101140.38
2023-02-07T01:03:57.511Z,101140.16
2023-02-07T01:06:25.984Z,101142.56
2023-02-07T01:08:58.203Z,101148.28
2023-02-07T01:11:26.500Z,101146.50
2023-02-07T01:13:54.191Z,101148.50
2023-02-07T01:16:37.055Z,101138.38
2023-02-07T01:19:11.394Z,101147.13
2023-02-07T01:21:39.377Z,101142.94
2023-02-07T01:24:07.783Z,101140.53
2023-02-07T01:26:36.252Z,101141.16
2023-02-07T01:29:04.841Z,101141.53
2023-02-07T01:31:32.439Z,101135.00
2023-02-07T01:34:02.093Z,101141.91
2023-02-07T01:36:31.252Z,101137.50
2023-02-07T01:38:58.834Z,101133.75
2023-02-07T01:41:28.442Z,101136.13
2023-02-07T01:44:08.006Z,101133.94
2023-02-07T01:46:37.067Z,101128.59
2023-02-07T01:49:12.642Z,101133.16
2023-02-07T01:51:49.889Z,101130.59
2023-02-07T01:54:19.048Z,101136.34
2023-02-07T01:56:57.018Z,101130.59
2023-02-07T01:59:26.289Z,101134.78
2023-02-07T02:01:54.060Z,101127.03
2023-02-07T02:04:21.791Z,101130.44
2023-02-07T02:06:52.587Z,101134.19
2023-02-07T02:09:20.083Z,101139.78
2023-02-07T02:12:05.503Z,101135.41
2023-02-07T02:15:06.052Z,101145.75
2023-02-07T02:17:45.241Z,101142.38
2023-02-07T02:20:30.593Z,101141.38
2023-02-07T02:23:30.327Z,101146.16
2023-02-07T02:26:44.114Z,101138.22
2023-02-07T02:30:07.657Z,101131.88
2023-02-07T02:33:24.478Z,101129.63
2023-02-07T02:35:54.845Z,101134.19
2023-02-07T02:38:40.559Z,101135.81
2023-02-07T02:41:15.084Z,101140.38
2023-02-07T02:44:06.374Z,101142.78
2023-02-07T02:46:41.633Z,101140.78
2023-02-07T02:49:14.227Z,101130.59
2023-02-07T02:51:41.893Z,101142.50
2023-02-07T02:54:36.693Z,101140.88
2023-02-07T02:57:35.312Z,101137.53
2023-02-07T03:00:49.588Z,101148.78
2023-02-07T03:03:23.598Z,101144.03
2023-02-07T03:06:31.378Z,101150.97
2023-02-07T03:09:16.888Z,101146.03
2023-02-07T03:12:02.438Z,101147.78
2023-02-07T03:14:55.152Z,101153.56
2023-02-07T03:17:54.535Z,101147.81
2023-02-07T03:20:30.632Z,101152.16
2023-02-07T03:23:01.299Z,101152.84
2023-02-07T03:25:32.365Z,101158.41
2023-02-07T03:28:02.375Z,101153.41
2023-02-07T03:30:33.996Z,101157.16
2023-02-07T03:33:11.636Z,101153.44
2023-02-07T03:35:50.093Z,101153.84
2023-02-07T03:38:18.080Z,101151.22
2023-02-07T03:40:52.466Z,101153.25
2023-02-07T03:43:28.565Z,101154.81
2023-02-07T03:45:57.467Z,101152.09
2023-02-07T03:48:25.214Z,101147.91
2023-02-07T03:50:53.095Z,101149.22
2023-02-07T03:53:21.882Z,101150.41
2023-02-07T03:55:49.474Z,101148.41
2023-02-07T03:58:16.974Z,101148.00
2023-02-07T04:00:44.651Z,101146.81
2023-02-07T04:03:12.169Z,101144.66
2023-02-07T04:05:40.117Z,101155.56
2023-02-07T04:08:07.824Z,101141.63
2023-02-07T04:10:35.252Z,101148.78
2023-02-07T04:13:02.739Z,101147.78
2023-02-07T04:15:30.447Z,101151.75
2023-02-07T04:17:58.020Z,101151.00
2023-02-07T04:20:25.564Z,101144.84
2023-02-07T04:22:53.001Z,101151.34
2023-02-07T04:25:21.342Z,101146.81
2023-02-07T04:27:51.781Z,101155.91
2023-02-07T04:30:19.660Z,101169.03
2023-02-07T04:32:47.151Z,101171.00
2023-02-07T04:35:14.672Z,101177.75
2023-02-07T04:37:42.350Z,101167.97
2023-02-07T04:40:11.024Z,101169.78
2023-02-07T04:42:38.535Z,101170.31
2023-02-07T04:45:06.528Z,101180.00
2023-02-07T04:47:33.979Z,101179.19
2023-02-07T04:50:01.542Z,101180.00
2023-02-07T04:52:30.000Z,101190.25
2023-02-07T04:54:57.473Z,101193.19
2023-02-07T04:57:25.141Z,101193.81
2023-02-07T04:59:52.649Z,101193.19
2023-02-07T05:02:20.183Z,101202.63
2023-02-07T05:04:47.710Z,101201.16
2023-02-07T05:07:15.440Z,101199.75
2023-02-07T05:09:42.847Z,101201.75
2023-02-07T05:12:11.570Z,101206.56
2023-02-07T05:14:38.990Z,101200.59
2023-02-07T05:17:06.548Z,101207.97
2023-02-07T05:19:35.971Z,101203.66
2023-02-07T05:22:03.427Z,101209.34
2023-02-07T05:24:30.951Z,101201.13
2023-02-07T05:26:58.637Z,101204.13
2023-02-07T05:29:26.280Z,101207.69
2023-02-07T05:32:12.327Z,101208.91
2023-02-07T05:34:40.469Z,101210.09
2023-02-07T05:37:07.921Z,101212.25
2023-02-07T05:39:35.371Z,101209.25
2023-02-07T05:42:02.931Z,101219.50
2023-02-07T05:44:30.312Z,101229.22
2023-02-07T05:46:57.807Z,101223.13
2023-02-07T05:49:25.243Z,101227.75
2023-02-07T05:51:52.711Z,101224.41
2023-02-07T05:54:21.364Z,101232.16
2023-02-07T05:56:48.906Z,101228.00
2023-02-07T05:59:16.505Z,101236.03
2023-02-07T06:01:44.057Z,101240.72
2023-02-07T06:04:11.503Z,101241.66
2023-02-07T06:06:40.076Z,101241.19
2023-02-07T06:09:07.658Z,101239.91
2023-02-07T06:11:35.219Z,101247.06
2023-02-07T06:14:02.639Z,101236.66
2023-02-07T06:16:30.214Z,101241.88
2023-02-07T06:18:57.697Z,101242.94
2023-02-07T06:21:31.993Z,101236.34
2023-02-07T06:24:06.276Z,101251.09
2023-02-07T06:26:33.923Z,101241.75
2023-02-07T06:29:01.565Z,101256.97
2023-02-07T06:31:29.021Z,101260.63
2023-02-07T06:33:56.536Z,101251.97
2023-02-07T06:36:24.049Z,101259.81
2023-02-07T06:38:54.549Z,101260.81
2023-02-07T06:41:25.163Z,101268.38
2023-02-07T06:43:52.605Z,101263.16
2023-02-07T06:46:20.067Z,101263.47
2023-02-07T06:48:47.511Z,101264.69
2023-02-07T06:51:16.200Z,101265.53
2023-02-07T06:53:43.736Z,101261.84
2023-02-07T06:56:11.482Z,101262.69
2023-02-07T06:58:38.975Z,101260.31
2023-02-07T07:01:06.859Z,101273.44
2023-02-07T07:03:34.315Z,101259.34
2023-02-07T07:06:01.811Z,101262.72
2023-02-07T07:08:29.329Z,101267.09
2023-02-07T07:11:00.953Z,101263.34
2023-02-07T07:13:28.388Z,101267.50
2023-02-07T07:15:55.872Z,101270.47
2023-02-07T07:18:23.360Z,101272.88
2023-02-07T07:20:55.484Z,101271.44
2023-02-07T07:23:23.082Z,101264.53
2023-02-07T07:25:50.899Z,101267.09
2023-02-07T07:28:18.466Z,101272.22
2023-02-07T07:30:46.229Z,101267.28
2023-02-07T07:33:13.936Z,101267.06
2023-02-07T07:35:41.827Z,101271.03
2023-02-07T07:38:09.461Z,101263.72
2023-02-07T07:40:37.131Z,101266.63
2023-02-07T07:43:05.774Z,101262.31
2023-02-07T07:45:51.667Z,101264.81
2023-02-07T07:48:19.407Z,101265.03
2023-02-07T07:50:46.832Z,101259.25
2023-02-07T07:53:14.787Z,101258.22
2023-02-07T07:55:42.743Z,101261.25
2023-02-07T07:58:10.212Z,101262.56
2023-02-07T08:00:38.045Z,101271.78
2023-02-07T08:03:05.609Z,101267.22
2023-02-07T08:05:33.197Z,101270.81
2023-02-07T08:08:00.645Z,101268.75
2023-02-07T08:10:28.208Z,101270.22
2023-02-07T08:12:55.611Z,101262.38
2023-02-07T08:15:23.154Z,101261.06
2023-02-07T08:17:50.725Z,101252.31
2023-02-07T08:20:18.380Z,101251.47
2023-02-07T08:22:45.919Z,101253.47
2023-02-07T08:25:13.520Z,101253.81
2023-02-07T08:27:41.000Z,101252.31
2023-02-07T08:30:12.568Z,101254.22
2023-02-07T08:32:41.074Z,101251.13
2023-02-07T08:35:09.880Z,101249.13
2023-02-07T08:37:39.755Z,101255.47
2023-02-07T08:40:09.727Z,101255.34
2023-02-07T08:42:37.184Z,101255.19
2023-02-07T08:45:05.738Z,101250.19
2023-02-07T08:47:33.612Z,101256.59
2023-02-07T08:50:01.127Z,101247.84
2023-02-07T08:52:29.823Z,101250.16
2023-02-07T08:54:57.370Z,101247.41
2023-02-07T08:57:25.839Z,101246.97
2023-02-07T08:59:54.329Z,101242.97
2023-02-07T09:02:21.968Z,101241.78
2023-02-07T09:04:49.558Z,101244.38
2023-02-07T09:07:17.184Z,101244.97
2023-02-07T09:09:44.784Z,101240.69
2023-02-07T09:12:12.941Z,101241.28
2023-02-07T09:14:40.923Z,101245.34
2023-02-07T09:17:09.171Z,101247.50
2023-02-07T09:19:37.218Z,101243.22
2023-02-07T09:22:05.637Z,101240.44
2023-02-07T09:24:33.715Z,101241.28
2023-02-07T09:27:02.506Z,101234.66
2023-02-07T09:29:30.040Z,101236.56
2023-02-07T09:31:57.667Z,101230.53
2023-02-07T09:34:25.449Z,101231.94
2023-02-07T09:36:53.233Z,101235.16
2023-02-07T09:39:21.207Z,101227.41
2023-02-07T09:42:05.181Z,101228.06
2023-02-07T09:45:00.606Z,101222.16
2023-02-07T09:47:29.511Z,101218.59
2023-02-07T09:50:12.353Z,101206.31
2023-02-07T09:52:47.292Z,101204.50
2023-02-07T09:55:45.114Z,101204.44
2023-02-07T09:58:26.641Z,101202.63
2023-02-07T10:01:21.712Z,101195.25
2023-02-07T10:04:35.642Z,101190.63
2023-02-07T10:07:07.787Z,101190.94
2023-02-07T10:09:45.862Z,101192.91
2023-02-07T10:12:31.389Z,101184.75
2023-02-07T10:15:37.706Z,101184.63
2023-02-07T10:18:40.954Z,101176.94
2023-02-07T10:21:29.396Z,101175.91
2023-02-07T10:24:48.242Z,101170.06
2023-02-07T10:27:31.235Z,101171.63
2023-02-07T10:30:41.025Z,101169.25
2023-02-07T10:33:26.496Z,101157.28
2023-02-07T10:35:54.763Z,101156.03
2023-02-07T10:38:30.975Z,101165.56
2023-02-07T10:41:18.788Z,101157.53
2023-02-07T10:43:48.304Z,101168.28
2023-02-07T10:46:22.354Z,101144.97
2023-02-07T10:48:50.223Z,101144.47
2023-02-07T10:51:47.244Z,101141.31
2023-02-07T10:54:24.451Z,101141.03
2023-02-07T10:57:01.464Z,101137.69
2023-02-07T10:59:46.013Z,101135.59
2023-02-07T11:02:31.684Z,101133.91
2023-02-07T11:05:27.185Z,101130.31
2023-02-07T11:08:02.422Z,101128.78
2023-02-07T11:10:40.009Z,101133.59
2023-02-07T11:13:27.912Z,101132.91
2023-02-07T11:16:04.173Z,101127.63
2023-02-07T11:18:46.009Z,101117.81
2023-02-07T11:21:45.480Z,101112.97
2023-02-07T11:24:25.239Z,101109.53
2023-02-07T11:27:02.913Z,101114.47
2023-02-07T11:29:54.803Z,101108.81
2023-02-07T11:32:24.655Z,101107.72
2023-02-07T11:34:58.275Z,101106.91
2023-02-07T11:37:42.051Z,101102.88
2023-02-07T11:40:43.042Z,101096.38
2023-02-07T11:43:17.471Z,101097.91
2023-02-07T11:45:59.533Z,101100.56
2023-02-07T11:48:31.481Z,101095.84
2023-02-07T11:51:03.425Z,101091.59
2023-02-07T11:53:47.891Z,101086.25
2023-02-07T11:56:24.008Z,101075.56
2023-02-07T11:58:53.220Z,101082.38
2023-02-07T12:01:28.744Z,101072.91
2023-02-07T12:04:02.333Z,101070.47
2023-02-07T12:06:50.224Z,101063.00
2023-02-07T12:09:38.243Z,101063.03
2023-02-07T12:12:22.303Z,101060.22
2023-02-07T12:14:59.992Z,101050.69
2023-02-07T12:18:15.637Z,101056.25
2023-02-07T12:20:59.384Z,101050.69
2023-02-07T12:24:01.504Z,101047.41
2023-02-07T12:26:43.636Z,101050.25
2023-02-07T12:29:58.187Z,101052.56
2023-02-07T12:32:54.688Z,101051.50
2023-02-07T12:35:58.024Z,101043.75
2023-02-07T12:38:47.842Z,101044.84
2023-02-07T12:41:24.665Z,101051.56
2023-02-07T12:44:06.224Z,101044.69
2023-02-07T12:46:54.361Z,101050.28
2023-02-07T12:49:55.906Z,101050.44
2023-02-07T12:52:54.917Z,101050.66
2023-02-07T12:55:48.938Z,101056.25
2023-02-07T12:58:43.124Z,101065.41
2023-02-07T13:01:43.964Z,101058.88
2023-02-07T13:04:59.804Z,101056.44
2023-02-07T13:08:13.611Z,101050.53
2023-02-07T13:11:37.236Z,101058.78
2023-02-07T13:14:35.163Z,101054.16
2023-02-07T13:17:35.814Z,101053.09
2023-02-07T13:20:35.594Z,101047.88
2023-02-07T13:23:16.174Z,101057.91
2023-02-07T13:25:47.740Z,101052.56
2023-02-07T13:28:30.476Z,101056.75
2023-02-07T13:31:00.116Z,101052.81
2023-02-07T13:33:41.409Z,101052.59
2023-02-07T13:36:42.185Z,101049.53
2023-02-07T13:39:43.057Z,101048.44
2023-02-07T13:43:03.512Z,101051.00
2023-02-07T13:46:09.045Z,101050.34
2023-02-07T13:49:29.744Z,101044.22
2023-02-07T13:52:27.054Z,101045.56
2023-02-07T13:55:27.988Z,101049.06
2023-02-07T13:58:14.035Z,101050.81
2023-02-07T14:00:58.880Z,101047.41
2023-02-07T14:03:35.117Z,101051.41
2023-02-07T14:06:25.872Z,101050.16
2023-02-07T14:09:17.319Z,101048.75
2023-02-07T14:12:03.065Z,101048.34
2023-02-07T14:14:35.227Z,101049.84
2023-02-07T14:17:14.247Z,101049.88
2023-02-07T14:19:41.747Z,101046.31
2023-02-07T14:22:27.126Z,101055.09
2023-02-07T14:25:03.483Z,101049.75
2023-02-07T14:27:37.298Z,101052.50
2023-02-07T14:30:18.409Z,101049.19
2023-02-07T14:33:11.736Z,101059.03
2023-02-07T14:36:17.967Z,101064.25
2023-02-07T14:39:04.893Z,101058.50
2023-02-07T14:41:39.557Z,101057.25
2023-02-07T14:44:22.320Z,101062.34
2023-02-07T14:46:55.811Z,101055.75
2023-02-07T14:49:43.246Z,101054.63
2023-02-07T14:52:39.278Z,101053.72
2023-02-07T14:55:19.179Z,101058.91
2023-02-07T14:58:04.756Z,101062.03
2023-02-07T15:00:53.649Z,101062.03
2023-02-07T15:03:22.156Z,101070.81
2023-02-07T15:05:52.466Z,101079.13
2023-02-07T15:08:25.288Z,101076.94
2023-02-07T15:11:02.490Z,101076.19
2023-02-07T15:13:40.432Z,101084.16
2023-02-07T15:16:12.801Z,101080.03
2023-02-07T15:18:55.807Z,101086.31
2023-02-07T15:21:42.455Z,101084.56
2023-02-07T15:24:28.889Z,101076.50
2023-02-07T15:27:04.048Z,101091.19
2023-02-07T15:29:37.948Z,101097.78
2023-02-07T15:32:29.818Z,101090.53
2023-02-07T15:34:59.106Z,101091.41
2023-02-07T15:37:27.809Z,101089.44
2023-02-07T15:39:57.488Z,101096.63
2023-02-07T15:42:25.182Z,101094.22
2023-02-07T15:44:54.923Z,101096.88
2023-02-07T15:47:38.937Z,101105.41
2023-02-07T15:50:25.028Z,101104.81
2023-02-07T15:52:59.550Z,101106.56
2023-02-07T15:55:41.932Z,101109.06
2023-02-07T15:58:38.790Z,101105.31
2023-02-07T16:01:25.404Z,101117.13
2023-02-07T16:03:56.720Z,101114.31
2023-02-07T16:06:27.985Z,101120.81
2023-02-07T16:09:02.320Z,101124.50
2023-02-07T16:11:32.806Z,101128.00
2023-02-07T16:14:16.027Z,101126.19
2023-02-07T16:16:56.977Z,101132.84
2023-02-07T16:19:37.814Z,101126.47
2023-02-07T16:22:10.094Z,101127.38
2023-02-07T16:24:47.293Z,101133.16
2023-02-07T16:27:27.454Z,101133.25
2023-02-07T16:29:56.481Z,101131.78
2023-02-07T16:32:33.946Z,101136.72
2023-02-07T16:35:01.600Z,101139.09
2023-02-07T16:37:29.705Z,101146.00
2023-02-07T16:39:58.994Z,101143.50
2023-02-07T16:42:27.501Z,101147.56
2023-02-07T16:44:54.944Z,101143.03
2023-02-07T16:47:24.234Z,101146.31
2023-02-07T16:49:54.062Z,101148.00
2023-02-07T16:52:21.623Z,101148.63
2023-02-07T16:55:14.868Z,101153.38
2023-02-07T16:57:46.365Z,101152.56
2023-02-07T17:00:27.992Z,101161.91
2023-02-07T17:02:57.645Z,101164.13
2023-02-07T17:05:27.997Z,101163.94
2023-02-07T17:07:57.133Z,101166.50
2023-02-07T17:10:30.438Z,101166.53
2023-02-07T17:13:02.139Z,101175.06
2023-02-07T17:15:30.651Z,101181.19
2023-02-07T17:17:59.541Z,101178.84
2023-02-07T17:20:33.015Z,101184.22
2023-02-07T17:23:03.526Z,101188.75
2023-02-07T17:25:33.772Z,101183.81
2023-02-07T17:28:01.462Z,101189.41
2023-02-07T17:30:40.348Z,101187.66
2023-02-07T17:33:10.566Z,101193.03
2023-02-07T17:35:39.981Z,101188.06
2023-02-07T17:38:07.796Z,101186.06
2023-02-07T17:40:41.499Z,101194.22
2023-02-07T17:43:14.918Z,101185.88
2023-02-07T17:45:45.205Z,101192.41
2023-02-07T17:48:13.442Z,101186.84
2023-02-07T17:50:42.363Z,101191.59
2023-02-07T17:53:11.792Z,101194.19
2023-02-07T17:55:39.969Z,101204.06
2023-02-07T17:58:07.968Z,101199.72
2023-02-07T18:00:41.776Z,101201.72
2023-02-07T18:03:10.083Z,101191.97
2023-02-07T18:05:40.369Z,101182.25
2023-02-07T18:08:08.579Z,101198.94
2023-02-07T18:10:36.329Z,101202.50
2023-02-07T18:13:06.813Z,101203.91
2023-02-07T18:15:34.879Z,101199.72
2023-02-07T18:18:04.397Z,101203.56
2023-02-07T18:20:35.098Z,101208.84
2023-02-07T18:23:03.056Z,101204.34
2023-02-07T18:25:31.188Z,101208.66
2023-02-07T18:28:01.950Z,101219.03
2023-02-07T18:30:30.100Z,101218.84
2023-02-07T18:32:58.553Z,101216.78
2023-02-07T18:35:26.694Z,101218.00
2023-02-07T18:37:54.751Z,101224.38
2023-02-07T18:40:22.724Z,101214.78
2023-02-07T18:42:51.097Z,101212.94
2023-02-07T18:45:20.129Z,101218.25
2023-02-07T18:47:49.555Z,101217.03
2023-02-07T18:50:20.577Z,101219.47
2023-02-07T18:52:49.842Z,101232.16
2023-02-07T18:55:17.458Z,101225.78
2023-02-07T18:57:45.100Z,101221.81
2023-02-07T19:00:14.860Z,101227.31
2023-02-07T19:02:42.499Z,101222.72
2023-02-07T19:05:09.991Z,101220.97
2023-02-07T19:07:37.697Z,101225.91
2023-02-07T19:10:06.810Z,101227.16
2023-02-07T19:12:36.476Z,101229.94
2023-02-07T19:15:06.895Z,101231.88
2023-02-07T19:17:36.704Z,101238.22
2023-02-07T19:20:04.705Z,101235.41
2023-02-07T19:22:35.793Z,101242.03
2023-02-07T19:25:06.652Z,101234.69
2023-02-07T19:27:39.623Z,101233.69
2023-02-07T19:30:09.571Z,101231.09
2023-02-07T19:32:38.771Z,101232.31
2023-02-07T19:35:10.578Z,101235.28
2023-02-07T19:37:38.981Z,101231.88
2023-02-07T19:40:10.884Z,101235.03
2023-02-07T19:42:42.969Z,101235.66
2023-02-07T19:45:13.123Z,101231.88
2023-02-07T19:47:42.780Z,101240.41
2023-02-07T19:50:13.449Z,101241.38
2023-02-07T19:52:42.892Z,101239.03
2023-02-07T19:55:14.779Z,101238.19
2023-02-07T19:57:49.369Z,101245.72
2023-02-07T20:00:21.059Z,101251.63
2023-02-07T20:03:08.901Z,101248.22
2023-02-07T20:05:45.266Z,101251.25
2023-02-07T20:08:18.281Z,101257.78
2023-02-07T20:10:52.374Z,101255.84
2023-02-07T20:13:23.747Z,101264.78
2023-02-07T20:15:51.610Z,101259.81
2023-02-07T20:18:21.728Z,101264.81
2023-02-07T20:20:49.202Z,101273.13
2023-02-07T20:23:17.598Z,101268.34
2023-02-07T20:25:52.515Z,101266.09
2023-02-07T20:28:21.856Z,101270.25
2023-02-07T20:30:49.341Z,101266.47
2023-02-07T20:33:37.736Z,101272.25
2023-02-07T20:36:06.450Z,101269.09
2023-02-07T20:38:36.662Z,101267.09
2023-02-07T20:41:11.592Z,101272.38
2023-02-07T20:43:44.707Z,101268.09
2023-02-07T20:46:17.237Z,101270.94
2023-02-07T20:48:44.775Z,101268.34
2023-02-07T20:51:12.858Z,101269.13
2023-02-07T20:53:43.042Z,101264.78
2023-02-07T20:56:17.283Z,101264.78
2023-02-07T20:58:49.111Z,101269.13
2023-02-07T21:01:23.285Z,101263.63
2023-02-07T21:03:55.644Z,101267.56
2023-02-07T21:06:24.753Z,101277.03
2023-02-07T21:09:00.499Z,101269.97
2023-02-07T21:11:39.258Z,101276.97
2023-02-07T21:14:13.671Z,101274.78
2023-02-07T21:16:42.691Z,101273.00
2023-02-07T21:19:10.419Z,101280.16
2023-02-07T21:21:38.439Z,101273.81
2023-02-07T21:24:07.422Z,101285.44
2023-02-07T21:26:35.084Z,101278.59
2023-02-07T21:29:05.905Z,101289.91
2023-02-07T21:31:35.876Z,101288.47
2023-02-07T21:34:04.783Z,101285.91
2023-02-07T21:36:37.593Z,101289.22
2023-02-07T21:39:10.422Z,101288.81
2023-02-07T21:41:40.839Z,101289.59
2023-02-07T21:44:09.612Z,101284.63
2023-02-07T21:46:40.088Z,101295.69
2023-02-07T21:49:16.623Z,101292.06
2023-02-07T21:51:48.885Z,101299.44
2023-02-07T21:54:17.054Z,101293.31
2023-02-07T21:56:45.506Z,101292.69
2023-02-07T21:59:17.429Z,101293.69
2023-02-07T22:01:46.644Z,101301.22
2023-02-07T22:04:14.829Z,101306.94
2023-02-07T22:06:44.506Z,101307.75
2023-02-07T22:09:15.768Z,101303.31
2023-02-07T22:11:44.600Z,101304.06
2023-02-07T22:14:13.630Z,101320.53
2023-02-07T22:16:42.799Z,101316.25
2023-02-07T22:19:14.687Z,101309.09
2023-02-07T22:21:42.263Z,101314.38
2023-02-07T22:24:13.287Z,101316.34
2023-02-07T22:26:42.696Z,101318.75
2023-02-07T22:29:10.772Z,101315.72
2023-02-07T22:31:41.773Z,101315.72
2023-02-07T22:34:14.255Z,101311.81
2023-02-07T22:36:44.786Z,101317.56
2023-02-07T22:39:16.490Z,101323.59
2023-02-07T22:41:46.292Z,101326.81
2023-02-07T22:44:16.771Z,101317.22
2023-02-07T22:46:44.514Z,101318.59
2023-02-07T22:49:12.093Z,101319.56
2023-02-07T22:51:39.923Z,101312.69
2023-02-07T22:54:13.318Z,101319.13
2023-02-07T22:56:41.975Z,101319.13
2023-02-07T22:59:09.711Z,101314.78
2023-02-07T23:01:40.673Z,101314.28
2023-02-07T23:04:17.328Z,101313.94
2023-02-07T23:06:48.467Z,101319.19
2023-02-07T23:09:16.660Z,101313.97
2023-02-07T23:11:44.199Z,101311.63
2023-02-07T23:14:12.330Z,101309.09
2023-02-07T23:16:40.677Z,101313.78
2023-02-07T23:19:15.098Z,101317.22
2023-02-07T23:21:43.023Z,101307.16
2023-02-07T23:24:11.980Z,101313.50
2023-02-07T23:26:39.579Z,101316.50
2023-02-07T23:29:07.503Z,101315.44
2023-02-07T23:31:35.532Z,101319.06
2023-02-07T23:34:03.207Z,101318.31
2023-02-07T23:36:32.266Z,101314.59
2023-02-07T23:38:59.778Z,101322.16
2023-02-07T23:41:27.949Z,101321.56
2023-02-07T23:43:56.970Z,101323.25
2023-02-07T23:46:24.526Z,101322.22
2023-02-07T23:48:51.983Z,101326.22
2023-02-07T23:51:19.671Z,101331.00
2023-02-07T23:53:47.574Z,101336.09
2023-02-07T23:56:21.582Z,101336.84
2023-02-07T23:58:51.005Z,101342.66
